Maupin, OR

8:01 AM PDT on September 19, 2014 (GMT -0700)
Portland-Troutdale | Change Station
CLOSE
Current Station
Airport
Location: Portland Troutdale,
Elevation: 36 ft
Nearby Weather Stations

Elev 36 ft 45.55 °N, 122.41 °W | Updated 8 minutes ago

Clear
Clear
60 °F
Feels Like 60 °F
N
0
Wind Variable Wind from North

Today
High -- | Low -- °F
--% Chance of Precip.
Yesterday
High -- | Low -- °F
Precip. -- in
6:49 AM 7:08 PM
Waning Crescent, 18% visible
Pressure 30.07 in
Visibility 10.0 miles
Clouds Clear
Dew Point 57 °F
Humidity 90%
Rainfall 0.00 in
Snow Depth 0 in , 0 in , 0 in
UV 0 out of 12
Pollen 2.20 out of 12
Air Quality Not available.
Flu Activity Not available.
METAR KTTD 191453Z 00000KT 10SM CLR 16/14 A3007 RMK AO2 SLP182 T01560139 51014

More Conditions Fewer Conditions

Pressure 30.07 in
Visibility 10.0 miles
Clouds Clear
Dew Point 57 °F
Humidity 90%
Rainfall 0.00 in
Snow Depth 0 in , 0 in , 0 in
UV 0 out of 12
Pollen 2.20 out of 12
Air Quality Not available.
Flu Activity Not available.
METAR KTTD 191453Z 00000KT 10SM CLR 16/14 A3007 RMK AO2 SLP182 T01560139 51014

More Conditions Fewer Conditions

10-Day Weather Forecast

Almanac

Astronomy

Sep. 19, 2014 Rise Set
Actual Time 6:49 AM PDT 7:08 PM PDT
Civil Twilight 6:19 AM PDT 7:37 PM PDT
Nautical Twilight 5:44 AM PDT 8:12 PM PDT
Astronomical Twilight 5:09 AM PDT 8:48 PM PDT
Moon 2:30 AM PDT 4:48 PM PDT
Length of Visible Light 13h 18m
Length of Day
12h 19m
Tomorrow will be 3m 7s shorter.
Waning Crescent, 18% of the Moon is Illuminated
Today
Waning Crescent
Sep 24
New
Oct 1
First Quarter
Oct 8
Full
Oct 15
Last Quarter

Today's Extremes

State Highs State Lows

Community

WunderPhotos

Upload Photos

1,754,633 photos uploaded!

WunderBlogs® & News

By Dr. Jeff Masters
Director of Meteorology, Weather Underground
By Kari Strenfel
Meteorologist, Weather Underground
By Christopher C. Burt
Weather Historian, Weather Underground
September 19, 2014
September 19, 2014
September 19, 2014

Nearby

Snow Depth

Station Depth Elevation
Gerber Reservoir 0 in 4850 ft
Fourmile Lake 0 in 6000 ft
Clackamas Lake 0 in 3400 ft
Annie Springs 0 in 6020 ft
Santiam Junction 0 in 3750 ft

Earthquake Activity

City Distance Mag. Time & Date
Morton, Washington 99 miles 3.0 5:43 AM PDT
2014-09-16
Minimum magnitude displayed is 2.5.

Coastal Water Temperatures

Place Temperature
No Stations Reporting

Nearby Weather Stations